Time;durP1;ratioP1;P1;durP2;ratioP2;P2;SDS_P1;SDS_P2;PMS_P1;PMS_P2;Temp;Humidity;BMP_temperature;BMP_pressure;BME280_temperature;BME280_humidity;BME280_pressure;Samples;Min_cycle;Max_cycle;Signal;HPM_P1;HPM_P2
2023/02/23 00:00:34;;;;;;;8.52;5.63;;;11.40;90.00;;;;;;5076418;28;20029;-83
2023/02/23 00:03:00;;;;;;;7.70;5.38;;;11.40;90.20;;;;;;5076090;28;20028;-83
2023/02/23 00:12:10;;;;;;;8.55;5.78;;;11.40;90.00;;;;;;5073190;28;20048;-83
2023/02/23 00:24:18;;;;;;;7.97;5.78;;;11.40;90.00;;;;;;5030876;28;20060;-84
2023/02/23 00:26:46;;;;;;;8.77;6.30;;;11.40;90.00;;;;;;5031108;28;20128;-83
2023/02/23 00:29:16;;;;;;;8.23;6.00;;;11.40;90.00;;;;;;5038459;28;20025;-83
2023/02/23 00:31:43;;;;;;;9.55;6.43;;;11.40;90.00;;;;;;5050767;28;20100;-83
2023/02/23 00:34:10;;;;;;;8.55;5.95;;;11.40;90.00;;;;;;5051596;28;20099;-83
2023/02/23 00:36:36;;;;;;;9.48;6.45;;;11.40;90.00;;;;;;5050656;28;20071;-85
2023/02/23 00:39:16;;;;;;;8.75;5.93;;;11.40;90.00;;;;;;5050518;28;20020;-83
2023/02/23 00:41:42;;;;;;;9.45;6.50;;;11.40;90.00;;;;;;5051779;28;20075;-82
2023/02/23 00:44:08;;;;;;;8.93;6.50;;;11.40;90.00;;;;;;5052870;28;20033;-83
2023/02/23 00:46:33;;;;;;;8.68;5.90;;;11.40;90.00;;;;;;5051236;28;20021;-83
2023/02/23 00:48:59;;;;;;;8.40;6.35;;;11.40;90.00;;;;;;5051606;28;20394;-82
2023/02/23 00:51:29;;;;;;;8.77;6.18;;;11.40;90.00;;;;;;5051297;28;20032;-83
2023/02/23 00:53:56;;;;;;;8.48;6.15;;;11.40;90.00;;;;;;5051443;28;20028;-83
2023/02/23 00:56:21;;;;;;;9.27;6.38;;;11.40;90.00;;;;;;5052848;28;20036;-82
2023/02/23 00:58:47;;;;;;;9.25;6.50;;;11.40;90.00;;;;;;5051550;28;20466;-83
2023/02/23 01:01:13;;;;;;;9.23;6.18;;;11.40;90.00;;;;;;5051423;28;20509;-82
2023/02/23 01:03:41;;;;;;;9.35;6.82;;;11.40;90.00;;;;;;5051449;28;20025;-84
2023/02/23 01:06:10;;;;;;;9.50;7.00;;;11.40;90.10;;;;;;5052660;28;20087;-83
2023/02/23 01:08:38;;;;;;;10.13;6.88;;;11.40;90.00;;;;;;5050671;28;20043;-83
2023/02/23 01:11:09;;;;;;;9.73;6.82;;;11.40;90.10;;;;;;5050136;28;20033;-83
2023/02/23 01:13:36;;;;;;;9.55;6.53;;;11.40;90.10;;;;;;5051867;28;20033;-82
2023/02/23 01:16:06;;;;;;;9.80;6.63;;;11.40;90.00;;;;;;5051797;28;20290;-83
2023/02/23 01:18:33;;;;;;;9.27;6.82;;;11.40;90.10;;;;;;5050329;28;20447;-84
2023/02/23 01:20:59;;;;;;;10.75;7.55;;;11.40;90.10;;;;;;5050617;28;20029;-83
2023/02/23 01:23:25;;;;;;;9.27;6.65;;;11.40;90.10;;;;;;5050640;28;20033;-86
2023/02/23 01:25:50;;;;;;;9.23;6.45;;;11.40;90.10;;;;;;5050217;28;20485;-83
2023/02/23 01:28:16;;;;;;;10.30;6.85;;;11.40;90.10;;;;;;5050412;28;20029;-83
2023/02/23 01:30:41;;;;;;;9.63;7.10;;;11.40;90.10;;;;;;5050981;28;20494;-82
2023/02/23 01:33:07;;;;;;;10.00;7.80;;;11.40;90.10;;;;;;5051122;28;20106;-84
2023/02/23 01:35:33;;;;;;;10.27;7.40;;;11.30;90.00;;;;;;5052464;28;20032;-82
2023/02/23 01:37:59;;;;;;;10.20;7.75;;;11.40;90.10;;;;;;5051437;28;20029;-82
2023/02/23 01:40:29;;;;;;;10.88;7.30;;;11.40;90.10;;;;;;5051077;28;20814;-82
2023/02/23 01:43:10;;;;;;;10.27;7.15;;;11.40;90.10;;;;;;5051229;28;20079;-83
2023/02/23 01:45:39;;;;;;;10.73;8.02;;;11.40;90.10;;;;;;5050934;28;20563;-83
2023/02/23 01:48:11;;;;;;;10.38;7.97;;;11.40;90.10;;;;;;5050928;28;20036;-83
2023/02/23 01:50:56;;;;;;;11.60;8.50;;;11.40;90.10;;;;;;5050363;28;20028;-84
2023/02/23 01:53:23;;;;;;;11.50;8.50;;;11.40;90.10;;;;;;5052437;28;20021;-83
2023/02/23 01:56:04;;;;;;;10.63;7.70;;;11.40;90.10;;;;;;5050830;28;20029;-83
2023/02/23 01:58:32;;;;;;;11.30;8.25;;;11.40;90.10;;;;;;5052697;28;20032;-84
2023/02/23 02:01:01;;;;;;;11.43;8.70;;;11.40;90.10;;;;;;5054963;28;20029;-83
2023/02/23 02:03:34;;;;;;;11.52;8.65;;;11.40;90.10;;;;;;5055127;28;20394;-82
2023/02/23 02:06:02;;;;;;;11.15;8.40;;;11.40;90.10;;;;;;5056061;28;20029;-83
2023/02/23 02:08:30;;;;;;;10.90;8.00;;;11.40;90.10;;;;;;5053938;28;20029;-84
2023/02/23 02:10:56;;;;;;;12.23;8.85;;;11.40;90.10;;;;;;5050051;28;20018;-83
2023/02/23 02:13:28;;;;;;;10.80;8.25;;;11.40;90.10;;;;;;5051245;28;20036;-83
2023/02/23 02:15:56;;;;;;;11.13;8.25;;;11.40;90.10;;;;;;5052902;28;20025;-83
2023/02/23 02:18:51;;;;;;;11.93;8.85;;;11.40;90.10;;;;;;5052862;28;20120;-84
2023/02/23 02:21:19;;;;;;;11.57;8.98;;;11.40;90.10;;;;;;5053035;28;20087;-84
2023/02/23 02:24:07;;;;;;;12.40;9.15;;;11.40;90.10;;;;;;5049697;28;20017;-84
2023/02/23 02:26:47;;;;;;;12.65;9.88;;;11.40;90.10;;;;;;5049373;28;20593;-84
2023/02/23 02:29:36;;;;;;;11.23;8.82;;;11.40;90.10;;;;;;5053418;28;20095;-83
2023/02/23 02:32:21;;;;;;;11.68;8.63;;;11.40;90.10;;;;;;5053323;28;20525;-81
2023/02/23 02:35:06;;;;;;;12.13;9.35;;;11.40;90.10;;;;;;5053108;28;20268;-83
2023/02/23 02:37:46;;;;;;;13.70;9.68;;;11.40;90.10;;;;;;5055350;28;20370;-83
2023/02/23 02:40:25;;;;;;;13.73;9.87;;;11.40;90.10;;;;;;5052747;28;20496;-83
2023/02/23 02:43:13;;;;;;;12.68;9.27;;;11.40;90.40;;;;;;5054347;28;20044;-82
2023/02/23 02:45:45;;;;;;;11.60;9.00;;;11.40;90.10;;;;;;5053792;28;20029;-82
2023/02/23 02:48:17;;;;;;;13.27;9.82;;;11.40;90.10;;;;;;5053901;28;20025;-84
2023/02/23 02:50:54;;;;;;;12.25;9.27;;;11.40;90.10;;;;;;5053514;28;20025;-84
2023/02/23 02:53:39;;;;;;;13.93;10.18;;;11.40;90.20;;;;;;5054847;28;20510;-83
2023/02/23 02:56:06;;;;;;;11.98;9.18;;;11.40;90.20;;;;;;5053452;28;20095;-82
2023/02/23 02:58:32;;;;;;;12.30;9.23;;;11.40;90.10;;;;;;5055222;28;20022;-82
2023/02/23 04:19:33;;;;;;;13.75;10.82;;;11.40;90.20;;;;;;5033717;28;20029;-82
2023/02/23 04:21:59;;;;;;;14.60;11.10;;;11.40;90.20;;;;;;5033011;28;20033;-82
2023/02/23 04:24:24;;;;;;;15.48;11.75;;;11.40;90.20;;;;;;5031674;28;20025;-82
2023/02/23 04:26:50;;;;;;;15.15;11.45;;;11.40;90.20;;;;;;5048511;28;20022;-82
2023/02/23 04:29:15;;;;;;;15.00;11.77;;;11.40;90.20;;;;;;5031928;28;20025;-83
2023/02/23 04:31:41;;;;;;;15.57;12.13;;;11.40;90.20;;;;;;5031814;28;20364;-82
2023/02/23 04:34:07;;;;;;;14.98;11.88;;;11.40;90.20;;;;;;5048164;28;20022;-85
2023/02/23 04:36:32;;;;;;;15.55;11.98;;;11.40;90.20;;;;;;5031896;28;20032;-82
2023/02/23 04:38:58;;;;;;;15.60;11.75;;;11.40;90.20;;;;;;5033087;28;20083;-82
2023/02/23 04:41:23;;;;;;;15.23;11.43;;;11.40;90.20;;;;;;5031782;28;20396;-83
2023/02/23 04:43:49;;;;;;;17.27;13.05;;;11.40;90.20;;;;;;5031808;28;20033;-84
2023/02/23 04:46:14;;;;;;;16.23;12.27;;;11.40;90.20;;;;;;5048398;28;20049;-82
2023/02/23 04:48:40;;;;;;;17.00;12.48;;;11.40;90.20;;;;;;5031917;28;20112;-84
2023/02/23 04:51:05;;;;;;;17.20;12.55;;;11.40;90.20;;;;;;5031713;28;20492;-81
2023/02/23 04:53:31;;;;;;;15.63;12.23;;;11.40;90.20;;;;;;5031688;28;20037;-82
2023/02/23 04:55:56;;;;;;;15.57;11.35;;;11.40;90.20;;;;;;5032799;28;20547;-83
2023/02/23 04:58:22;;;;;;;15.23;11.27;;;11.40;90.20;;;;;;5031807;28;20026;-83
2023/02/23 05:00:48;;;;;;;16.10;12.15;;;11.40;90.20;;;;;;5048077;28;20033;-84
2023/02/23 05:03:16;;;;;;;16.40;13.13;;;11.30;90.20;;;;;;5031995;28;20045;-84
2023/02/23 05:05:41;;;;;;;15.45;11.90;;;11.30;90.20;;;;;;5030635;28;20026;-83
2023/02/23 05:08:07;;;;;;;15.68;12.40;;;11.40;90.20;;;;;;5043418;28;20537;-83
2023/02/23 05:10:33;;;;;;;15.45;12.23;;;11.30;90.20;;;;;;5048109;28;20033;-83
2023/02/23 05:13:00;;;;;;;16.48;12.10;;;11.30;90.20;;;;;;5051406;28;20536;-83
2023/02/23 05:15:25;;;;;;;18.02;13.68;;;11.40;90.20;;;;;;5049957;28;20398;-83
2023/02/23 05:17:51;;;;;;;16.75;12.60;;;11.40;90.20;;;;;;5048572;28;20080;-83
2023/02/23 05:20:16;;;;;;;16.55;12.75;;;11.30;90.20;;;;;;5050001;28;20029;-84
2023/02/23 05:22:42;;;;;;;15.48;12.00;;;11.30;90.20;;;;;;5050412;28;20048;-83
2023/02/23 05:25:08;;;;;;;16.10;12.23;;;11.40;90.20;;;;;;5050913;28;20029;-83
2023/02/23 05:27:35;;;;;;;16.50;13.07;;;11.30;90.20;;;;;;5051289;28;20063;-83
2023/02/23 05:30:01;;;;;;;16.65;12.05;;;11.30;90.20;;;;;;5051236;28;20053;-82
2023/02/23 05:32:27;;;;;;;15.88;12.02;;;11.40;90.30;;;;;;5051100;28;20501;-87
2023/02/23 05:34:52;;;;;;;16.30;12.68;;;11.40;90.30;;;;;;5055333;28;20032;-84
2023/02/23 05:37:21;;;;;;;16.48;13.05;;;11.30;90.20;;;;;;5056762;28;20082;-88
2023/02/23 05:39:46;;;;;;;17.80;13.48;;;11.30;90.20;;;;;;5055201;28;20118;-85
2023/02/23 05:42:14;;;;;;;17.52;13.30;;;11.30;90.20;;;;;;5052285;28;20053;-85
2023/02/23 05:44:40;;;;;;;17.88;13.68;;;11.30;90.20;;;;;;5035089;28;20029;-85
2023/02/23 05:47:05;;;;;;;16.45;13.25;;;11.30;90.20;;;;;;5034101;28;20581;-84
2023/02/23 05:49:31;;;;;;;16.52;13.23;;;11.30;90.20;;;;;;5034312;28;20029;-83
2023/02/23 05:51:56;;;;;;;17.02;13.05;;;11.40;90.20;;;;;;5033142;28;20033;-83
2023/02/23 05:54:21;;;;;;;16.65;13.43;;;11.30;90.30;;;;;;5030806;28;20033;-85
2023/02/23 05:56:47;;;;;;;18.23;13.82;;;11.40;90.30;;;;;;5030651;28;20025;-86
2023/02/23 16:03:20;;;;;;;16.55;11.38;;;11.30;90.20;;;;;;2017201;23;20311;-85
2023/02/23 16:06:07;;;;;;;;;;;11.30;90.20;;;;;;5058517;28;20053;-86
